Aeroporto :
LOGIN :

Iscrizione | Disclaimer

   EN    FR    IT 

 










Sommario :    VFR   VFR Marginale   IFR   IFR Intensivo   IFR Molto Intensivo
Visibilità : 
Base nubi : 
>= 8 km
>= 3000ft
5 / 8 km
1000 / 3000 ft
1500m / 5 km
500 / 1000 ft
800 / 1500m
200 / 500 ft
< 800m
< 200 ft
Simboli :   Temporali  Nebbia  Neve Forte  Precipitazioni Forti  Vento > 20 kt
SIGMETs :   Varie  Temporali  Ghiacco  Turbolenza  Onda orograficha  Ceneri Vulcaniche






- Altitudine del aeroporto : 26 ft
- Codice IATA : GLA


EGPF - Glasgow

ULTIMO METAR :
  • 271950Z AUTO 26009KT 9999 NCD 03/00 Q1006

METARs OBSOLETI :
  • 271920Z AUTO 26012KT 9999 NCD 03/00 Q1005
  • 271850Z AUTO 23010KT 9999 NCD 02/M00 Q1005
  • 271820Z AUTO 27007KT 9999 NCD 03/M00 Q1005
  • 271750Z AUTO 27008KT 9999 NCD 03/M00 Q1004

TAF TAF EGPF
Valido dal 27 a 18 ore il 28 a 18 ore UTC


271700Z 2718/2818 26009KT 9999 FEW010 SCT025
PROB40
TEMPO 2718/2724 8000 -SHRA
TEMPO 2808/2818 5000 RA BKN010
PROB40
TEMPO 2808/2812 4000 RASN BKN008
BECMG 2809/2812 14010KT
BECMG 2812/2815 08009KT
TEMPO 2812/2818 3000 +RADZ RASN BKN005
PROB40
TEMPO 2813/2817 BKN004
ATIS : +44 141 887 7449



MetMap, La meteo Aeronautica in un colpo d'occhio ! - Copyright ORBIFLY Dicembre 2007 - Disclaimer

ORBIFLY MET'MAP TEAM :

Programmazione e sviluppo : Alexandra Zaïnal
Concezione : Baudouin d'Aumeries
Aiuto per la programmazione : Marc-Olivier Méhu
Supporto tecnico e logistico : Manuel Goepfert
Aiuto per la traduzione : Arnaldo La Scala

Contatto : metmap@orbifly.com




FONTI E CREDITI :

   NOAA